CYYJ/YYJ METAR and TAF weather

Enter ICAO airport designator
Station Type Date Time Source
CYYJ METAR 2019/04/19 22:21 UTC NOAA

CYYJ 192221Z 03008KT 20SM FEW009 FEW022TCU SCT036 BKN058 12/10 A2998 RMK CF1TCU2SC1SC3 CF TR SLP154


Station Type Date Time Source
CYYJ Decoded METAR 2019/04/19 22:21 UTC NOAA

Victoria Int. Airport, B. C., Canada (CYYJ) 48-39N 123-26W 19M
Apr 19, 2019 - 06:21 PM EDT / 2019.04.19 2221 UTC
Wind: from the NNE (030 degrees) at 9 MPH (8 KT):0
Visibility: 20 mile(s):0
Sky conditions: mostly cloudy
Weather: Towering cumulus clouds observed
Temperature: 53 F (12 C)
Dew Point: 50 F (10 C)
Relative Humidity: 87%
Pressure (altimeter): 29.98 in. Hg (1015 hPa)
ob: CYYJ 192221Z 03008KT 20SM FEW009 FEW022TCU SCT036 BKN058 12/10 A2998 RMK CF1TCU2SC1SC3 CF TR SLP154
cycle: 22

Station Type Date Time Source
CYYJ TAF 2019/04/19 18:42 UTC NOAA

TAF CYYJ 191738Z 1918/2018 VRB03KT P6SM FEW008 FEW015 BKN080
TEMPO 1918/1921 FEW008 SCT015 BKN040
FM192100 03008KT P6SM FEW015 BKN060
FM200400 VRB03KT P6SM SCT040
FM200900 30008KT P6SM SCT020 BKN040
RMK NXT FCST BY 200000Z

Example: see airport list